sensor_id;sensor_type;location;lat;lon;timestamp;P1;durP1;ratioP1;P2;durP2;ratioP2
63046;SDS011;62025;39.238;9.126;2024-03-23T00:54:37;7.93;;;5.05;;
63046;SDS011;62025;39.238;9.126;2024-03-23T00:57:03;8.02;;;5.32;;
63046;SDS011;62025;39.238;9.126;2024-03-23T00:59:29;8.85;;;4.97;;
63046;SDS011;62025;39.238;9.126;2024-03-23T01:01:56;9.27;;;5.53;;
63046;SDS011;62025;39.238;9.126;2024-03-23T01:04:22;11.40;;;5.18;;
63046;SDS011;62025;39.238;9.126;2024-03-23T01:06:48;6.60;;;4.53;;
63046;SDS011;62025;39.238;9.126;2024-03-23T01:09:14;7.57;;;4.90;;
63046;SDS011;62025;39.238;9.126;2024-03-23T01:11:40;9.73;;;4.97;;
63046;SDS011;62025;39.238;9.126;2024-03-23T01:14:06;9.05;;;4.95;;
63046;SDS011;62025;39.238;9.126;2024-03-23T01:16:32;9.60;;;5.40;;
63046;SDS011;62025;39.238;9.126;2024-03-23T01:18:58;9.32;;;4.70;;
63046;SDS011;62025;39.238;9.126;2024-03-23T01:21:24;6.85;;;4.43;;
63046;SDS011;62025;39.238;9.126;2024-03-23T01:23:50;9.27;;;4.55;;
63046;SDS011;62025;39.238;9.126;2024-03-23T01:26:16;7.93;;;4.60;;
63046;SDS011;62025;39.238;9.126;2024-03-23T01:28:42;11.30;;;4.80;;
63046;SDS011;62025;39.238;9.126;2024-03-23T01:31:08;9.25;;;5.00;;
63046;SDS011;62025;39.238;9.126;2024-03-23T01:33:35;9.50;;;4.82;;
63046;SDS011;62025;39.238;9.126;2024-03-23T01:36:01;7.13;;;4.50;;
63046;SDS011;62025;39.238;9.126;2024-03-23T01:38:27;7.55;;;4.78;;
63046;SDS011;62025;39.238;9.126;2024-03-23T01:40:57;11.65;;;5.57;;
63046;SDS011;62025;39.238;9.126;2024-03-23T01:43:23;10.95;;;4.70;;
63046;SDS011;62025;39.238;9.126;2024-03-23T01:45:49;9.88;;;4.57;;
63046;SDS011;62025;39.238;9.126;2024-03-23T01:48:19;7.00;;;4.45;;
63046;SDS011;62025;39.238;9.126;2024-03-23T01:50:46;11.70;;;4.70;;
63046;SDS011;62025;39.238;9.126;2024-03-23T01:53:13;8.15;;;4.72;;
63046;SDS011;62025;39.238;9.126;2024-03-23T01:55:42;7.80;;;4.50;;
63046;SDS011;62025;39.238;9.126;2024-03-23T01:58:09;7.70;;;4.25;;
63046;SDS011;62025;39.238;9.126;2024-03-23T02:00:35;10.75;;;4.70;;
63046;SDS011;62025;39.238;9.126;2024-03-23T02:03:02;10.70;;;4.55;;
63046;SDS011;62025;39.238;9.126;2024-03-23T02:05:47;10.85;;;4.30;;
63046;SDS011;62025;39.238;9.126;2024-03-23T02:08:13;5.90;;;4.15;;
63046;SDS011;62025;39.238;9.126;2024-03-23T02:10:39;7.55;;;4.20;;
63046;SDS011;62025;39.238;9.126;2024-03-23T02:13:05;7.72;;;4.10;;
63046;SDS011;62025;39.238;9.126;2024-03-23T02:15:31;7.05;;;4.13;;
63046;SDS011;62025;39.238;9.126;2024-03-23T02:17:59;7.07;;;3.75;;
63046;SDS011;62025;39.238;9.126;2024-03-23T02:20:25;10.75;;;4.28;;
63046;SDS011;62025;39.238;9.126;2024-03-23T02:22:52;7.35;;;4.28;;
63046;SDS011;62025;39.238;9.126;2024-03-23T02:25:19;7.18;;;3.90;;
63046;SDS011;62025;39.238;9.126;2024-03-23T02:27:44;9.32;;;4.07;;
63046;SDS011;62025;39.238;9.126;2024-03-23T02:30:10;10.10;;;3.80;;
63046;SDS011;62025;39.238;9.126;2024-03-23T02:32:37;5.70;;;3.42;;
63046;SDS011;62025;39.238;9.126;2024-03-23T02:35:03;6.60;;;3.42;;
63046;SDS011;62025;39.238;9.126;2024-03-23T02:37:30;10.05;;;4.15;;
63046;SDS011;62025;39.238;9.126;2024-03-23T02:39:56;5.10;;;3.30;;
63046;SDS011;62025;39.238;9.126;2024-03-23T02:42:22;9.23;;;4.05;;
63046;SDS011;62025;39.238;9.126;2024-03-23T02:44:48;6.43;;;3.30;;
63046;SDS011;62025;39.238;9.126;2024-03-23T02:47:14;7.38;;;3.90;;
63046;SDS011;62025;39.238;9.126;2024-03-23T02:49:40;7.70;;;3.42;;
63046;SDS011;62025;39.238;9.126;2024-03-23T02:52:06;11.57;;;3.85;;
63046;SDS011;62025;39.238;9.126;2024-03-23T02:54:32;7.00;;;3.70;;
63046;SDS011;62025;39.238;9.126;2024-03-23T02:56:58;9.45;;;4.40;;
63046;SDS011;62025;39.238;9.126;2024-03-23T02:59:24;5.72;;;3.55;;
63046;SDS011;62025;39.238;9.126;2024-03-23T03:01:50;9.75;;;4.05;;
63046;SDS011;62025;39.238;9.126;2024-03-23T03:04:16;5.78;;;4.13;;
63046;SDS011;62025;39.238;9.126;2024-03-23T03:06:43;8.07;;;4.43;;
63046;SDS011;62025;39.238;9.126;2024-03-23T03:09:14;7.32;;;4.32;;
63046;SDS011;62025;39.238;9.126;2024-03-23T03:11:40;7.22;;;4.43;;
63046;SDS011;62025;39.238;9.126;2024-03-23T03:14:06;6.68;;;4.45;;
63046;SDS011;62025;39.238;9.126;2024-03-23T03:16:33;6.30;;;4.40;;
63046;SDS011;62025;39.238;9.126;2024-03-23T03:18:59;7.88;;;4.32;;
63046;SDS011;62025;39.238;9.126;2024-03-23T03:21:26;9.43;;;5.00;;
63046;SDS011;62025;39.238;9.126;2024-03-23T03:23:52;9.25;;;4.65;;
63046;SDS011;62025;39.238;9.126;2024-03-23T03:26:18;9.45;;;4.70;;
63046;SDS011;62025;39.238;9.126;2024-03-23T03:28:44;7.68;;;5.10;;
63046;SDS011;62025;39.238;9.126;2024-03-23T03:31:17;5.78;;;4.72;;
63046;SDS011;62025;39.238;9.126;2024-03-23T03:33:43;8.85;;;4.60;;
63046;SDS011;62025;39.238;9.126;2024-03-23T03:36:10;8.65;;;5.15;;
63046;SDS011;62025;39.238;9.126;2024-03-23T03:38:36;9.02;;;4.93;;
63046;SDS011;62025;39.238;9.126;2024-03-23T03:41:03;13.10;;;5.47;;
63046;SDS011;62025;39.238;9.126;2024-03-23T03:43:31;11.07;;;5.03;;
63046;SDS011;62025;39.238;9.126;2024-03-23T03:45:58;9.15;;;5.35;;
63046;SDS011;62025;39.238;9.126;2024-03-23T03:48:25;9.25;;;5.07;;
63046;SDS011;62025;39.238;9.126;2024-03-23T03:50:52;10.98;;;5.28;;
63046;SDS011;62025;39.238;9.126;2024-03-23T03:53:19;9.23;;;5.65;;
63046;SDS011;62025;39.238;9.126;2024-03-23T03:55:45;8.70;;;5.40;;
63046;SDS011;62025;39.238;9.126;2024-03-23T03:58:11;9.52;;;5.30;;
63046;SDS011;62025;39.238;9.126;2024-03-23T04:00:37;11.02;;;5.85;;
63046;SDS011;62025;39.238;9.126;2024-03-23T04:03:03;8.63;;;5.95;;
63046;SDS011;62025;39.238;9.126;2024-03-23T04:05:30;7.22;;;5.53;;
63046;SDS011;62025;39.238;9.126;2024-03-23T04:07:56;9.20;;;5.93;;
63046;SDS011;62025;39.238;9.126;2024-03-23T04:10:22;6.57;;;5.40;;
63046;SDS011;62025;39.238;9.126;2024-03-23T04:12:48;7.78;;;6.03;;
63046;SDS011;62025;39.238;9.126;2024-03-23T04:15:14;7.90;;;5.57;;
63046;SDS011;62025;39.238;9.126;2024-03-23T04:17:40;10.90;;;6.40;;
63046;SDS011;62025;39.238;9.126;2024-03-23T04:20:08;11.00;;;6.18;;
63046;SDS011;62025;39.238;9.126;2024-03-23T04:22:36;8.57;;;5.68;;
63046;SDS011;62025;39.238;9.126;2024-03-23T04:25:03;9.98;;;5.95;;
63046;SDS011;62025;39.238;9.126;2024-03-23T04:27:35;9.50;;;5.75;;
63046;SDS011;62025;39.238;9.126;2024-03-23T04:30:04;11.35;;;6.35;;
63046;SDS011;62025;39.238;9.126;2024-03-23T04:32:35;8.07;;;5.80;;
63046;SDS011;62025;39.238;9.126;2024-03-23T04:35:05;8.80;;;5.90;;
63046;SDS011;62025;39.238;9.126;2024-03-23T04:37:35;9.38;;;5.70;;
63046;SDS011;62025;39.238;9.126;2024-03-23T04:40:02;8.63;;;5.88;;
63046;SDS011;62025;39.238;9.126;2024-03-23T04:42:29;12.90;;;5.72;;
63046;SDS011;62025;39.238;9.126;2024-03-23T04:44:56;7.50;;;4.70;;
63046;SDS011;62025;39.238;9.126;2024-03-23T04:47:22;10.20;;;5.57;;
63046;SDS011;62025;39.238;9.126;2024-03-23T04:49:49;8.98;;;5.68;;
63046;SDS011;62025;39.238;9.126;2024-03-23T04:52:15;13.43;;;5.53;;
63046;SDS011;62025;39.238;9.126;2024-03-23T04:54:42;10.93;;;5.90;;
63046;SDS011;62025;39.238;9.126;2024-03-23T04:57:09;8.60;;;5.55;;
63046;SDS011;62025;39.238;9.126;2024-03-23T04:59:35;9.00;;;5.70;;
63046;SDS011;62025;39.238;9.126;2024-03-23T05:02:01;7.65;;;5.63;;
63046;SDS011;62025;39.238;9.126;2024-03-23T05:04:28;8.27;;;5.80;;
63046;SDS011;62025;39.238;9.126;2024-03-23T05:06:54;11.02;;;6.15;;
63046;SDS011;62025;39.238;9.126;2024-03-23T05:09:20;8.38;;;6.03;;
63046;SDS011;62025;39.238;9.126;2024-03-23T05:11:46;12.82;;;6.03;;
63046;SDS011;62025;39.238;9.126;2024-03-23T05:14:13;9.07;;;5.80;;
63046;SDS011;62025;39.238;9.126;2024-03-23T05:16:39;9.98;;;6.35;;
63046;SDS011;62025;39.238;9.126;2024-03-23T05:19:06;7.60;;;5.35;;
63046;SDS011;62025;39.238;9.126;2024-03-23T05:21:32;10.25;;;5.90;;
63046;SDS011;62025;39.238;9.126;2024-03-23T05:23:58;9.48;;;5.50;;
63046;SDS011;62025;39.238;9.126;2024-03-23T05:26:24;10.93;;;5.85;;
63046;SDS011;62025;39.238;9.126;2024-03-23T05:28:50;7.32;;;5.50;;
63046;SDS011;62025;39.238;9.126;2024-03-23T05:31:22;10.45;;;6.50;;
63046;SDS011;62025;39.238;9.126;2024-03-23T05:33:50;6.82;;;5.43;;
63046;SDS011;62025;39.238;9.126;2024-03-23T05:36:16;9.23;;;5.38;;
63046;SDS011;62025;39.238;9.126;2024-03-23T05:38:42;9.73;;;5.60;;
63046;SDS011;62025;39.238;9.126;2024-03-23T05:41:08;11.88;;;5.72;;
63046;SDS011;62025;39.238;9.126;2024-03-23T05:43:35;8.70;;;5.95;;
63046;SDS011;62025;39.238;9.126;2024-03-23T05:46:01;8.68;;;5.65;;
63046;SDS011;62025;39.238;9.126;2024-03-23T05:48:27;11.20;;;5.88;;
63046;SDS011;62025;39.238;9.126;2024-03-23T05:50:55;10.07;;;5.63;;
63046;SDS011;62025;39.238;9.126;2024-03-23T05:53:23;12.90;;;6.43;;
63046;SDS011;62025;39.238;9.126;2024-03-23T05:55:59;9.30;;;6.28;;
63046;SDS011;62025;39.238;9.126;2024-03-23T05:58:29;9.50;;;5.97;;
63046;SDS011;62025;39.238;9.126;2024-03-23T06:00:58;9.68;;;5.80;;
63046;SDS011;62025;39.238;9.126;2024-03-23T06:03:26;8.35;;;5.82;;
63046;SDS011;62025;39.238;9.126;2024-03-23T06:05:54;8.40;;;6.07;;
63046;SDS011;62025;39.238;9.126;2024-03-23T06:08:20;8.77;;;5.60;;
63046;SDS011;62025;39.238;9.126;2024-03-23T06:10:47;8.82;;;5.70;;
63046;SDS011;62025;39.238;9.126;2024-03-23T06:13:13;9.55;;;5.50;;
63046;SDS011;62025;39.238;9.126;2024-03-23T06:15:40;8.45;;;5.25;;
63046;SDS011;62025;39.238;9.126;2024-03-23T06:18:06;10.00;;;5.80;;
63046;SDS011;62025;39.238;9.126;2024-03-23T06:20:33;11.95;;;5.82;;
63046;SDS011;62025;39.238;9.126;2024-03-23T06:23:02;9.77;;;5.78;;
63046;SDS011;62025;39.238;9.126;2024-03-23T06:25:29;11.77;;;5.95;;
63046;SDS011;62025;39.238;9.126;2024-03-23T06:27:55;10.85;;;6.50;;
63046;SDS011;62025;39.238;9.126;2024-03-23T06:30:23;8.77;;;5.73;;
63046;SDS011;62025;39.238;9.126;2024-03-23T06:32:49;9.10;;;5.70;;
63046;SDS011;62025;39.238;9.126;2024-03-23T06:35:15;9.07;;;5.63;;
63046;SDS011;62025;39.238;9.126;2024-03-23T06:37:41;11.10;;;6.43;;
63046;SDS011;62025;39.238;9.126;2024-03-23T06:40:07;12.40;;;6.05;;
63046;SDS011;62025;39.238;9.126;2024-03-23T06:42:35;7.90;;;5.90;;
63046;SDS011;62025;39.238;9.126;2024-03-23T06:45:02;10.55;;;5.85;;
63046;SDS011;62025;39.238;9.126;2024-03-23T06:47:30;8.85;;;5.70;;
63046;SDS011;62025;39.238;9.126;2024-03-23T06:49:56;9.10;;;5.32;;
63046;SDS011;62025;39.238;9.126;2024-03-23T06:52:23;7.68;;;5.22;;
63046;SDS011;62025;39.238;9.126;2024-03-23T06:54:49;10.07;;;6.13;;
63046;SDS011;62025;39.238;9.126;2024-03-23T06:57:15;7.45;;;5.28;;
63046;SDS011;62025;39.238;9.126;2024-03-23T06:59:41;10.38;;;5.63;;
63046;SDS011;62025;39.238;9.126;2024-03-23T07:02:07;7.82;;;5.53;;
63046;SDS011;62025;39.238;9.126;2024-03-23T07:04:35;8.32;;;5.68;;
63046;SDS011;62025;39.238;9.126;2024-03-23T07:07:01;6.00;;;5.18;;
63046;SDS011;62025;39.238;9.126;2024-03-23T07:09:28;6.78;;;5.18;;
63046;SDS011;62025;39.238;9.126;2024-03-23T07:11:57;10.23;;;5.90;;
63046;SDS011;62025;39.238;9.126;2024-03-23T07:14:23;10.13;;;5.55;;
63046;SDS011;62025;39.238;9.126;2024-03-23T07:16:50;7.57;;;4.65;;
63046;SDS011;62025;39.238;9.126;2024-03-23T07:19:17;9.30;;;5.10;;
63046;SDS011;62025;39.238;9.126;2024-03-23T07:21:46;8.05;;;5.10;;
63046;SDS011;62025;39.238;9.126;2024-03-23T07:24:13;5.95;;;5.07;;
63046;SDS011;62025;39.238;9.126;2024-03-23T07:26:39;8.55;;;4.30;;
63046;SDS011;62025;39.238;9.126;2024-03-23T07:29:06;8.95;;;4.30;;
63046;SDS011;62025;39.238;9.126;2024-03-23T07:31:32;9.88;;;4.60;;
63046;SDS011;62025;39.238;9.126;2024-03-23T07:33:58;6.68;;;4.28;;
63046;SDS011;62025;39.238;9.126;2024-03-23T07:36:24;8.02;;;4.15;;
63046;SDS011;62025;39.238;9.126;2024-03-23T07:38:51;5.80;;;4.22;;
63046;SDS011;62025;39.238;9.126;2024-03-23T07:41:17;8.18;;;4.88;;
63046;SDS011;62025;39.238;9.126;2024-03-23T07:43:45;6.22;;;4.10;;
63046;SDS011;62025;39.238;9.126;2024-03-23T07:46:13;7.10;;;4.07;;
63046;SDS011;62025;39.238;9.126;2024-03-23T07:48:40;6.78;;;3.95;;
63046;SDS011;62025;39.238;9.126;2024-03-23T07:51:16;7.40;;;3.70;;
63046;SDS011;62025;39.238;9.126;2024-03-23T07:53:46;7.72;;;3.70;;
63046;SDS011;62025;39.238;9.126;2024-03-23T07:56:17;11.20;;;4.18;;
63046;SDS011;62025;39.238;9.126;2024-03-23T07:58:44;4.40;;;3.67;;
63046;SDS011;62025;39.238;9.126;2024-03-23T08:01:14;6.30;;;3.40;;
63046;SDS011;62025;39.238;9.126;2024-03-23T08:03:42;8.02;;;3.40;;
63046;SDS011;62025;39.238;9.126;2024-03-23T08:06:11;7.22;;;3.70;;
63046;SDS011;62025;39.238;9.126;2024-03-23T08:08:46;7.07;;;3.30;;
63046;SDS011;62025;39.238;9.126;2024-03-23T08:11:14;7.22;;;3.45;;
63046;SDS011;62025;39.238;9.126;2024-03-23T08:13:40;6.65;;;3.08;;
63046;SDS011;62025;39.238;9.126;2024-03-23T08:16:08;5.47;;;3.10;;
63046;SDS011;62025;39.238;9.126;2024-03-23T08:18:34;8.27;;;3.47;;
63046;SDS011;62025;39.238;9.126;2024-03-23T08:21:04;5.93;;;3.20;;
63046;SDS011;62025;39.238;9.126;2024-03-23T08:23:31;6.50;;;3.28;;
63046;SDS011;62025;39.238;9.126;2024-03-23T08:26:01;8.98;;;3.65;;
63046;SDS011;62025;39.238;9.126;2024-03-23T08:28:29;9.77;;;3.50;;
63046;SDS011;62025;39.238;9.126;2024-03-23T08:30:55;8.60;;;3.60;;
63046;SDS011;62025;39.238;9.126;2024-03-23T08:33:22;7.63;;;3.60;;
63046;SDS011;62025;39.238;9.126;2024-03-23T08:35:55;7.35;;;4.00;;
63046;SDS011;62025;39.238;9.126;2024-03-23T08:38:23;6.65;;;3.92;;
63046;SDS011;62025;39.238;9.126;2024-03-23T08:41:02;4.50;;;3.60;;
63046;SDS011;62025;39.238;9.126;2024-03-23T08:43:36;6.53;;;3.72;;
63046;SDS011;62025;39.238;9.126;2024-03-23T08:46:11;8.02;;;3.97;;
63046;SDS011;62025;39.238;9.126;2024-03-23T08:48:42;8.95;;;3.88;;
63046;SDS011;62025;39.238;9.126;2024-03-23T08:51:11;7.10;;;4.80;;
63046;SDS011;62025;39.238;9.126;2024-03-23T08:53:42;6.72;;;4.93;;
63046;SDS011;62025;39.238;9.126;2024-03-23T08:56:08;7.97;;;4.95;;
63046;SDS011;62025;39.238;9.126;2024-03-23T08:58:36;10.93;;;4.97;;
63046;SDS011;62025;39.238;9.126;2024-03-23T09:03:36;7.10;;;4.28;;
63046;SDS011;62025;39.238;9.126;2024-03-23T09:06:06;8.00;;;3.42;;
63046;SDS011;62025;39.238;9.126;2024-03-23T09:08:42;7.35;;;3.30;;
63046;SDS011;62025;39.238;9.126;2024-03-23T09:11:08;4.63;;;3.20;;
63046;SDS011;62025;39.238;9.126;2024-03-23T09:16:04;7.05;;;3.05;;
63046;SDS011;62025;39.238;9.126;2024-03-23T09:18:31;4.70;;;2.80;;
63046;SDS011;62025;39.238;9.126;2024-03-23T09:21:00;3.22;;;2.78;;
63046;SDS011;62025;39.238;9.126;2024-03-23T09:23:36;4.70;;;2.75;;
63046;SDS011;62025;39.238;9.126;2024-03-23T09:26:03;8.10;;;3.30;;
63046;SDS011;62025;39.238;9.126;2024-03-23T09:28:29;5.70;;;2.92;;
63046;SDS011;62025;39.238;9.126;2024-03-23T09:31:03;4.63;;;2.77;;
63046;SDS011;62025;39.238;9.126;2024-03-23T09:33:29;6.13;;;3.30;;
63046;SDS011;62025;39.238;9.126;2024-03-23T09:35:55;6.75;;;3.63;;
63046;SDS011;62025;39.238;9.126;2024-03-23T09:38:22;10.63;;;3.20;;
63046;SDS011;62025;39.238;9.126;2024-03-23T09:40:52;5.55;;;2.97;;
63046;SDS011;62025;39.238;9.126;2024-03-23T09:43:19;8.95;;;3.47;;
63046;SDS011;62025;39.238;9.126;2024-03-23T09:45:45;13.75;;;4.95;;
63046;SDS011;62025;39.238;9.126;2024-03-23T09:48:12;7.97;;;3.05;;
63046;SDS011;62025;39.238;9.126;2024-03-23T09:50:38;5.30;;;3.08;;
63046;SDS011;62025;39.238;9.126;2024-03-23T09:53:09;5.10;;;3.35;;
63046;SDS011;62025;39.238;9.126;2024-03-23T09:55:38;7.18;;;3.38;;
63046;SDS011;62025;39.238;9.126;2024-03-23T09:58:08;4.18;;;2.90;;
63046;SDS011;62025;39.238;9.126;2024-03-23T10:00:39;5.40;;;3.20;;
63046;SDS011;62025;39.238;9.126;2024-03-23T10:03:05;6.68;;;3.15;;
63046;SDS011;62025;39.238;9.126;2024-03-23T10:05:32;7.18;;;3.50;;
63046;SDS011;62025;39.238;9.126;2024-03-23T10:10:42;6.35;;;3.10;;
63046;SDS011;62025;39.238;9.126;2024-03-23T10:13:09;5.60;;;2.90;;
63046;SDS011;62025;39.238;9.126;2024-03-23T10:15:39;6.22;;;3.00;;
63046;SDS011;62025;39.238;9.126;2024-03-23T10:18:18;5.50;;;3.20;;
63046;SDS011;62025;39.238;9.126;2024-03-23T10:20:51;7.05;;;3.40;;
63046;SDS011;62025;39.238;9.126;2024-03-23T10:23:32;3.72;;;2.60;;
63046;SDS011;62025;39.238;9.126;2024-03-23T10:26:19;4.75;;;2.63;;
63046;SDS011;62025;39.238;9.126;2024-03-23T10:31:27;4.10;;;2.35;;
63046;SDS011;62025;39.238;9.126;2024-03-23T10:33:54;6.55;;;2.67;;
63046;SDS011;62025;39.238;9.126;2024-03-23T10:36:21;4.82;;;2.60;;
63046;SDS011;62025;39.238;9.126;2024-03-23T10:38:47;6.03;;;2.60;;
63046;SDS011;62025;39.238;9.126;2024-03-23T10:41:17;3.53;;;2.53;;
63046;SDS011;62025;39.238;9.126;2024-03-23T10:43:47;6.80;;;2.83;;
63046;SDS011;62025;39.238;9.126;2024-03-23T10:46:15;8.20;;;3.08;;
63046;SDS011;62025;39.238;9.126;2024-03-23T10:48:41;5.55;;;3.10;;
63046;SDS011;62025;39.238;9.126;2024-03-23T10:51:08;4.20;;;2.65;;
63046;SDS011;62025;39.238;9.126;2024-03-23T10:53:35;4.50;;;2.72;;
63046;SDS011;62025;39.238;9.126;2024-03-23T10:56:05;4.22;;;2.60;;
63046;SDS011;62025;39.238;9.126;2024-03-23T10:58:35;5.47;;;2.83;;
63046;SDS011;62025;39.238;9.126;2024-03-23T11:01:13;3.20;;;2.55;;
63046;SDS011;62025;39.238;9.126;2024-03-23T11:03:40;3.40;;;2.60;;
63046;SDS011;62025;39.238;9.126;2024-03-23T11:06:11;4.03;;;2.17;;
63046;SDS011;62025;39.238;9.126;2024-03-23T11:17:36;4.50;;;2.47;;
63046;SDS011;62025;39.238;9.126;2024-03-23T11:20:02;4.63;;;2.53;;
63046;SDS011;62025;39.238;9.126;2024-03-23T11:22:40;3.05;;;2.38;;
63046;SDS011;62025;39.238;9.126;2024-03-23T11:27:51;7.25;;;2.70;;
63046;SDS011;62025;39.238;9.126;2024-03-23T11:30:26;5.78;;;2.90;;
63046;SDS011;62025;39.238;9.126;2024-03-23T11:32:55;5.43;;;2.58;;
63046;SDS011;62025;39.238;9.126;2024-03-23T11:38:12;8.47;;;2.63;;
63046;SDS011;62025;39.238;9.126;2024-03-23T11:43:10;5.47;;;2.55;;
63046;SDS011;62025;39.238;9.126;2024-03-23T11:48:13;4.47;;;2.65;;
63046;SDS011;62025;39.238;9.126;2024-03-23T11:50:43;3.35;;;2.63;;
63046;SDS011;62025;39.238;9.126;2024-03-23T11:55:48;5.28;;;2.50;;
63046;SDS011;62025;39.238;9.126;2024-03-23T11:58:22;7.45;;;3.15;;
63046;SDS011;62025;39.238;9.126;2024-03-23T12:03:23;5.18;;;2.80;;
63046;SDS011;62025;39.238;9.126;2024-03-23T12:05:58;7.05;;;3.25;;
63046;SDS011;62025;39.238;9.126;2024-03-23T12:08:30;5.13;;;2.80;;
63046;SDS011;62025;39.238;9.126;2024-03-23T12:11:05;7.20;;;2.50;;
63046;SDS011;62025;39.238;9.126;2024-03-23T12:13:44;5.05;;;2.80;;
63046;SDS011;62025;39.238;9.126;2024-03-23T12:16:21;4.35;;;2.92;;
63046;SDS011;62025;39.238;9.126;2024-03-23T12:18:50;9.23;;;2.80;;
63046;SDS011;62025;39.238;9.126;2024-03-23T12:21:16;5.50;;;2.55;;
63046;SDS011;62025;39.238;9.126;2024-03-23T12:23:43;3.97;;;2.70;;
63046;SDS011;62025;39.238;9.126;2024-03-23T12:26:13;5.68;;;2.60;;
63046;SDS011;62025;39.238;9.126;2024-03-23T12:28:41;6.53;;;2.60;;
63046;SDS011;62025;39.238;9.126;2024-03-23T12:31:06;4.45;;;3.30;;
63046;SDS011;62025;39.238;9.126;2024-03-23T12:33:32;7.78;;;3.88;;
63046;SDS011;62025;39.238;9.126;2024-03-23T12:35:58;3.13;;;2.80;;
63046;SDS011;62025;39.238;9.126;2024-03-23T12:38:24;6.50;;;2.90;;
63046;SDS011;62025;39.238;9.126;2024-03-23T12:40:50;3.90;;;2.65;;
63046;SDS011;62025;39.238;9.126;2024-03-23T12:43:17;7.00;;;2.95;;
63046;SDS011;62025;39.238;9.126;2024-03-23T12:45:47;5.13;;;2.50;;
63046;SDS011;62025;39.238;9.126;2024-03-23T12:48:14;3.90;;;2.65;;
63046;SDS011;62025;39.238;9.126;2024-03-23T12:50:40;5.63;;;2.78;;
63046;SDS011;62025;39.238;9.126;2024-03-23T12:53:07;5.80;;;3.22;;
63046;SDS011;62025;39.238;9.126;2024-03-23T12:55:36;7.22;;;3.20;;
63046;SDS011;62025;39.238;9.126;2024-03-23T12:58:02;6.40;;;3.83;;
63046;SDS011;62025;39.238;9.126;2024-03-23T13:00:28;5.55;;;2.63;;
63046;SDS011;62025;39.238;9.126;2024-03-23T13:02:54;5.65;;;2.30;;
63046;SDS011;62025;39.238;9.126;2024-03-23T13:05:20;3.85;;;2.30;;
63046;SDS011;62025;39.238;9.126;2024-03-23T13:07:46;4.93;;;2.60;;
63046;SDS011;62025;39.238;9.126;2024-03-23T13:10:12;4.18;;;2.42;;
63046;SDS011;62025;39.238;9.126;2024-03-23T13:12:39;4.13;;;2.38;;
63046;SDS011;62025;39.238;9.126;2024-03-23T13:15:07;5.50;;;2.60;;
63046;SDS011;62025;39.238;9.126;2024-03-23T13:17:34;7.13;;;2.58;;
63046;SDS011;62025;39.238;9.126;2024-03-23T13:20:00;4.28;;;2.40;;
63046;SDS011;62025;39.238;9.126;2024-03-23T13:22:26;5.32;;;2.30;;
63046;SDS011;62025;39.238;9.126;2024-03-23T13:24:52;4.90;;;2.63;;
63046;SDS011;62025;39.238;9.126;2024-03-23T13:27:18;4.13;;;2.22;;
63046;SDS011;62025;39.238;9.126;2024-03-23T13:29:44;6.03;;;2.40;;
63046;SDS011;62025;39.238;9.126;2024-03-23T13:32:12;8.13;;;2.38;;
63046;SDS011;62025;39.238;9.126;2024-03-23T13:34:39;7.38;;;2.80;;
63046;SDS011;62025;39.238;9.126;2024-03-23T13:37:05;7.85;;;2.97;;
63046;SDS011;62025;39.238;9.126;2024-03-23T13:39:32;4.60;;;2.70;;
63046;SDS011;62025;39.238;9.126;2024-03-23T13:41:58;3.50;;;2.42;;
63046;SDS011;62025;39.238;9.126;2024-03-23T13:44:24;7.80;;;3.42;;
63046;SDS011;62025;39.238;9.126;2024-03-23T13:46:51;6.43;;;2.53;;
63046;SDS011;62025;39.238;9.126;2024-03-23T13:49:27;4.75;;;2.58;;
63046;SDS011;62025;39.238;9.126;2024-03-23T13:51:54;5.28;;;2.20;;
63046;SDS011;62025;39.238;9.126;2024-03-23T13:54:23;7.53;;;2.40;;
63046;SDS011;62025;39.238;9.126;2024-03-23T13:56:55;3.75;;;2.60;;
63046;SDS011;62025;39.238;9.126;2024-03-23T13:59:21;4.32;;;2.40;;
63046;SDS011;62025;39.238;9.126;2024-03-23T14:01:48;6.15;;;2.38;;
63046;SDS011;62025;39.238;9.126;2024-03-23T14:04:16;4.13;;;1.97;;
63046;SDS011;62025;39.238;9.126;2024-03-23T14:06:45;4.15;;;2.00;;
63046;SDS011;62025;39.238;9.126;2024-03-23T14:09:12;3.63;;;1.95;;
63046;SDS011;62025;39.238;9.126;2024-03-23T14:11:39;6.00;;;2.30;;
63046;SDS011;62025;39.238;9.126;2024-03-23T14:14:09;3.92;;;2.33;;
63046;SDS011;62025;39.238;9.126;2024-03-23T14:16:35;6.05;;;2.13;;
63046;SDS011;62025;39.238;9.126;2024-03-23T14:19:01;3.85;;;2.08;;
63046;SDS011;62025;39.238;9.126;2024-03-23T14:21:30;3.97;;;2.05;;
63046;SDS011;62025;39.238;9.126;2024-03-23T14:23:55;6.93;;;2.30;;
63046;SDS011;62025;39.238;9.126;2024-03-23T14:26:21;2.45;;;1.90;;
63046;SDS011;62025;39.238;9.126;2024-03-23T14:28:49;7.38;;;2.10;;
63046;SDS011;62025;39.238;9.126;2024-03-23T14:31:15;4.87;;;2.10;;
63046;SDS011;62025;39.238;9.126;2024-03-23T14:33:42;5.65;;;2.15;;
63046;SDS011;62025;39.238;9.126;2024-03-23T14:36:14;3.35;;;2.25;;
63046;SDS011;62025;39.238;9.126;2024-03-23T14:38:42;5.07;;;2.35;;
63046;SDS011;62025;39.238;9.126;2024-03-23T14:41:17;4.05;;;2.17;;
63046;SDS011;62025;39.238;9.126;2024-03-23T14:43:43;3.38;;;2.20;;
63046;SDS011;62025;39.238;9.126;2024-03-23T14:46:12;3.20;;;1.83;;
63046;SDS011;62025;39.238;9.126;2024-03-23T14:48:41;4.40;;;2.05;;
63046;SDS011;62025;39.238;9.126;2024-03-23T14:51:08;6.30;;;2.40;;
63046;SDS011;62025;39.238;9.126;2024-03-23T14:53:35;3.85;;;2.38;;
63046;SDS011;62025;39.238;9.126;2024-03-23T14:56:05;5.70;;;2.53;;
63046;SDS011;62025;39.238;9.126;2024-03-23T14:58:33;4.65;;;2.60;;
63046;SDS011;62025;39.238;9.126;2024-03-23T15:01:02;4.32;;;2.67;;
63046;SDS011;62025;39.238;9.126;2024-03-23T15:05:56;6.93;;;2.80;;
63046;SDS011;62025;39.238;9.126;2024-03-23T15:08:25;8.68;;;2.40;;
63046;SDS011;62025;39.238;9.126;2024-03-23T15:10:53;8.27;;;2.45;;
63046;SDS011;62025;39.238;9.126;2024-03-23T15:13:19;6.47;;;2.50;;
63046;SDS011;62025;39.238;9.126;2024-03-23T15:18:16;8.57;;;2.40;;
63046;SDS011;62025;39.238;9.126;2024-03-23T15:21:00;6.13;;;2.35;;
63046;SDS011;62025;39.238;9.126;2024-03-23T15:23:28;5.47;;;2.10;;
63046;SDS011;62025;39.238;9.126;2024-03-23T15:28:22;5.60;;;2.20;;
63046;SDS011;62025;39.238;9.126;2024-03-23T15:30:49;3.85;;;2.15;;
63046;SDS011;62025;39.238;9.126;2024-03-23T15:33:15;5.22;;;2.17;;
63046;SDS011;62025;39.238;9.126;2024-03-23T15:35:41;5.63;;;2.20;;
63046;SDS011;62025;39.238;9.126;2024-03-23T15:38:07;4.93;;;2.22;;
63046;SDS011;62025;39.238;9.126;2024-03-23T15:40:34;5.38;;;2.38;;
63046;SDS011;62025;39.238;9.126;2024-03-23T15:43:01;3.97;;;2.15;;
63046;SDS011;62025;39.238;9.126;2024-03-23T15:45:27;8.23;;;2.10;;
63046;SDS011;62025;39.238;9.126;2024-03-23T15:47:53;4.47;;;2.30;;
63046;SDS011;62025;39.238;9.126;2024-03-23T15:50:19;7.55;;;2.38;;
63046;SDS011;62025;39.238;9.126;2024-03-23T15:52:44;3.60;;;2.47;;
63046;SDS011;62025;39.238;9.126;2024-03-23T15:55:10;5.65;;;2.42;;
63046;SDS011;62025;39.238;9.126;2024-03-23T15:57:37;5.82;;;2.40;;
63046;SDS011;62025;39.238;9.126;2024-03-23T16:00:03;3.90;;;2.20;;
63046;SDS011;62025;39.238;9.126;2024-03-23T16:02:38;4.03;;;2.10;;
63046;SDS011;62025;39.238;9.126;2024-03-23T16:05:05;4.40;;;2.30;;
63046;SDS011;62025;39.238;9.126;2024-03-23T16:07:33;4.13;;;2.22;;
63046;SDS011;62025;39.238;9.126;2024-03-23T16:09:59;4.45;;;2.30;;
63046;SDS011;62025;39.238;9.126;2024-03-23T16:12:30;4.18;;;2.53;;
63046;SDS011;62025;39.238;9.126;2024-03-23T16:14:56;6.15;;;3.00;;
63046;SDS011;62025;39.238;9.126;2024-03-23T16:17:22;5.60;;;2.40;;
63046;SDS011;62025;39.238;9.126;2024-03-23T16:19:48;5.68;;;2.95;;
63046;SDS011;62025;39.238;9.126;2024-03-23T16:22:14;7.35;;;3.05;;
63046;SDS011;62025;39.238;9.126;2024-03-23T16:24:40;3.30;;;2.40;;